Big River, California
Current Conditions -  °F | °C
As of 8:15 PM on Tuesday 25 Nov 2014 (Local Time) from KHII Reporting Station
Clear Clear  
Wind Chill: 61°   Ceiling: Unl
Heat Index: 61°   Visibility: 10mi
Dew Point: 10°   Wind: 0mph
Humidity: 14%   Direction: NA
Pressure: 30.32"   Gusts: NA
Location:  34.1895°N, 114.364°W
Report Text: KHII 260415Z AUTO 00000KT 10SM CLR 16/M12 A3032 RMK AO2
Loading
Personal Weather Stations






























Interactive Weather Map New forecast layout! Learn more

10-Day Weather Forecast

Advertisements
Track Severe Weather on mobile